Time;durP1;ratioP1;P1;durP2;ratioP2;P2;SDS_P1;SDS_P2;PMS_P1;PMS_P2;Temp;Humidity;BMP_temperature;BMP_pressure;BME280_temperature;BME280_humidity;BME280_pressure;Samples;Min_cycle;Max_cycle;Signal;HPM_P1;HPM_P2
2023/07/14 00:00:34;;;;;;;;;;;;;;;;;;4955721;28;20355;-70
2023/07/14 00:03:00;;;;;;;;;;;;;;;;;;4956284;28;19997;-70
2023/07/14 00:05:27;;;;;;;;;;;;;;;;;;4956227;28;20342;-70
2023/07/14 00:07:54;;;;;;;;;;;;;;;;;;4956236;28;20044;-71
2023/07/14 00:10:20;;;;;;;;;;;;;;;;;;4955992;28;19964;-71
2023/07/14 00:12:46;;;;;;;;;;;;;;;;;;4955681;28;19957;-70
2023/07/14 00:15:12;;;;;;;;;;;;;;;;;;4955897;28;19958;-70
2023/07/14 00:17:38;;;;;;;;;;;;;;;;;;4955836;28;20008;-71
2023/07/14 00:20:04;;;;;;;;;;;;;;;;;;4955498;28;19977;-69
2023/07/14 00:22:30;;;;;;;;;;;;;;;;;;4955777;28;19957;-69
2023/07/14 00:24:56;;;;;;;;;;;;;;;;;;4955487;28;20432;-70
2023/07/14 00:27:24;;;;;;;;;;;;;;;;;;4955481;28;19997;-69
2023/07/14 00:29:52;;;;;;;;;;;;;;;;;;4955747;28;20032;-70
2023/07/14 00:32:18;;;;;;;;;;;;;;;;;;4955741;28;19997;-71
2023/07/14 00:34:44;;;;;;;;;;;;;;;;;;4955414;28;20028;-70
2023/07/14 00:37:10;;;;;;;;;;;;;;;;;;4955391;28;19981;-72
2023/07/14 00:39:36;;;;;;;;;;;;;;;;;;4955580;28;19977;-70
2023/07/14 00:42:03;;;;;;;;;;;;;;;;;;4955316;28;20025;-70
2023/07/14 00:44:29;;;;;;;;;;;;;;;;;;4955511;28;20035;-69
2023/07/14 00:46:55;;;;;;;;;;;;;;;;;;4955600;28;19997;-71
2023/07/14 00:49:21;;;;;;;;;;;;;;;;;;4958466;28;19965;-71
2023/07/14 00:51:47;;;;;;;;;;;;;;;;;;4959095;28;19957;-70
2023/07/14 00:54:13;;;;;;;;;;;;;;;;;;4959079;28;19957;-71
2023/07/14 00:56:39;;;;;;;;;;;;;;;;;;4959308;28;20008;-70
2023/07/14 00:59:04;;;;;;;;;;;;;;;;;;4958912;28;19981;-71
2023/07/14 01:01:31;;;;;;;;;;;;;;;;;;4959288;28;19957;-71
2023/07/14 01:04:02;;;;;;;;;;;;;;;;;;4959205;28;19957;-70
2023/07/14 01:06:29;;;;;;;;;;;;;;;;;;4959116;28;19969;-71
2023/07/14 01:08:55;;;;;;;;;;;;;;;;;;4959089;28;20040;-70
2023/07/14 01:11:21;;;;;;;;;;;;;;;;;;4958756;28;20032;-70
2023/07/14 01:13:47;;;;;;;;;;;;;;;;;;4958739;28;19958;-69
2023/07/14 01:16:14;;;;;;;;;;;;;;;;;;4958954;28;19964;-70
2023/07/14 01:18:40;;;;;;;;;;;;;;;;;;4958831;28;20347;-71
2023/07/14 01:21:06;;;;;;;;;;;;;;;;;;4958600;28;19959;-70
2023/07/14 01:23:32;;;;;;;;;;;;;;;;;;4958799;28;20044;-70
2023/07/14 01:25:58;;;;;;;;;;;;;;;;;;4958529;28;20008;-71
2023/07/14 01:28:24;;;;;;;;;;;;;;;;;;4958456;28;20017;-69
2023/07/14 01:30:50;;;;;;;;;;;;;;;;;;4958976;28;20332;-69
2023/07/14 01:33:16;;;;;;;;;;;;;;;;;;4958619;28;19964;-71
2023/07/14 01:35:42;;;;;;;;;;;;;;;;;;4958873;28;19958;-70
2023/07/14 01:38:09;;;;;;;;;;;;;;;;;;4958275;28;19996;-69
2023/07/14 01:40:36;;;;;;;;;;;;;;;;;;4958100;28;20017;-70
2023/07/14 01:43:01;;;;;;;;;;;;;;;;;;4958156;28;19985;-71
2023/07/14 01:45:27;;;;;;;;;;;;;;;;;;4957886;28;20048;-70
2023/07/14 01:47:53;;;;;;;;;;;;;;;;;;4958138;28;20408;-70
2023/07/14 01:50:19;;;;;;;;;;;;;;;;;;4958026;28;19958;-71
2023/07/14 01:52:45;;;;;;;;;;;;;;;;;;4958032;28;19957;-70
2023/07/14 01:55:11;;;;;;;;;;;;;;;;;;4958276;28;19961;-70
2023/07/14 01:57:38;;;;;;;;;;;;;;;;;;4957925;28;20057;-70
2023/07/14 02:00:04;;;;;;;;;;;;;;;;;;4957660;28;19985;-69
2023/07/14 02:02:30;;;;;;;;;;;;;;;;;;4957837;28;19958;-71
2023/07/14 02:04:56;;;;;;;;;;;;;;;;;;4958292;28;20301;-70
2023/07/14 02:07:21;;;;;;;;;;;;;;;;;;4957755;28;19968;-70
2023/07/14 02:09:47;;;;;;;;;;;;;;;;;;4956246;28;19961;-69
2023/07/14 02:12:13;;;;;;;;;;;;;;;;;;4957680;28;20363;-71
2023/07/14 02:14:39;;;;;;;;;;;;;;;;;;4957914;28;19957;-70
2023/07/14 02:17:05;;;;;;;;;;;;;;;;;;4957576;28;20309;-71
2023/07/14 02:19:31;;;;;;;;;;;;;;;;;;4957505;28;20440;-71
2023/07/14 02:21:57;;;;;;;;;;;;;;;;;;4957531;28;19965;-70
2023/07/14 02:24:23;;;;;;;;;;;;;;;;;;4957463;28;19957;-70
2023/07/14 02:26:49;;;;;;;;;;;;;;;;;;4957440;28;19964;-70
2023/07/14 02:29:15;;;;;;;;;;;;;;;;;;4957377;28;20028;-69
2023/07/14 02:31:41;;;;;;;;;;;;;;;;;;4957609;28;19969;-71
2023/07/14 02:34:08;;;;;;;;;;;;;;;;;;4957289;28;19958;-69
2023/07/14 02:36:34;;;;;;;;;;;;;;;;;;4957494;28;20004;-70
2023/07/14 02:39:01;;;;;;;;;;;;;;;;;;4957110;28;19981;-70
2023/07/14 02:41:27;;;;;;;;;;;;;;;;;;4957059;28;20399;-69
2023/07/14 02:43:54;;;;;;;;;;;;;;;;;;4957363;28;19958;-71
2023/07/14 02:46:19;;;;;;;;;;;;;;;;;;4957669;28;19962;-69
2023/07/14 02:48:45;;;;;;;;;;;;;;;;;;4956984;28;19958;-71
2023/07/14 02:51:11;;;;;;;;;;;;;;;;;;4956985;28;19961;-70
2023/07/14 02:53:37;;;;;;;;;;;;;;;;;;4956944;28;20433;-70
2023/07/14 02:56:03;;;;;;;;;;;;;;;;;;4956891;28;19958;-71
2023/07/14 02:58:29;;;;;;;;;;;;;;;;;;4957128;28;19981;-71
2023/07/14 03:00:55;;;;;;;;;;;;;;;;;;4956701;28;20467;-69
2023/07/14 03:03:21;;;;;;;;;;;;;;;;;;4957294;28;20452;-70
2023/07/14 03:05:47;;;;;;;;;;;;;;;;;;4957445;28;20408;-70
2023/07/14 03:08:16;;;;;;;;;;;;;;;;;;4956660;28;19958;-71
2023/07/14 03:10:42;;;;;;;;;;;;;;;;;;4957160;28;20300;-72
2023/07/14 03:13:08;;;;;;;;;;;;;;;;;;4957361;28;19964;-70
2023/07/14 03:15:34;;;;;;;;;;;;;;;;;;4956509;28;20450;-69
2023/07/14 03:18:00;;;;;;;;;;;;;;;;;;4956754;28;19964;-69
2023/07/14 03:20:26;;;;;;;;;;;;;;;;;;4956397;28;20010;-69
2023/07/14 03:22:51;;;;;;;;;;;;;;;;;;4956659;28;19961;-69
2023/07/14 03:25:17;;;;;;;;;;;;;;;;;;4956335;28;19958;-70
2023/07/14 03:27:45;;;;;;;;;;;;;;;;;;4956850;28;19957;-70
2023/07/14 03:30:11;;;;;;;;;;;;;;;;;;4956586;28;19962;-69
2023/07/14 03:32:37;;;;;;;;;;;;;;;;;;4956787;28;20051;-71
2023/07/14 03:35:03;;;;;;;;;;;;;;;;;;4956200;28;19965;-70
2023/07/14 03:37:29;;;;;;;;;;;;;;;;;;4956424;28;19958;-71
2023/07/14 03:39:55;;;;;;;;;;;;;;;;;;4956020;28;19978;-71
2023/07/14 03:42:21;;;;;;;;;;;;;;;;;;4956049;28;19977;-70
2023/07/14 03:44:47;;;;;;;;;;;;;;;;;;4955836;28;19994;-71
2023/07/14 03:47:13;;;;;;;;;;;;;;;;;;4955998;28;19964;-70
2023/07/14 03:49:39;;;;;;;;;;;;;;;;;;4956284;28;19989;-70
2023/07/14 03:52:05;;;;;;;;;;;;;;;;;;4955897;28;19957;-71
2023/07/14 03:54:30;;;;;;;;;;;;;;;;;;4956416;28;19957;-69
2023/07/14 03:56:58;;;;;;;;;;;;;;;;;;4955852;28;20034;-70
2023/07/14 03:59:24;;;;;;;;;;;;;;;;;;4955762;28;19984;-70
2023/07/14 04:01:50;;;;;;;;;;;;;;;;;;4956069;28;19957;-69
2023/07/14 04:04:16;;;;;;;;;;;;;;;;;;4956040;28;19958;-70
2023/07/14 04:06:42;;;;;;;;;;;;;;;;;;4956282;28;19961;-69
2023/07/14 04:09:07;;;;;;;;;;;;;;;;;;4955668;28;19957;-70
2023/07/14 04:11:34;;;;;;;;;;;;;;;;;;4955950;28;19957;-69
2023/07/14 04:14:00;;;;;;;;;;;;;;;;;;4955668;28;20105;-72
2023/07/14 04:16:26;;;;;;;;;;;;;;;;;;4955939;28;20009;-72
2023/07/14 04:18:51;;;;;;;;;;;;;;;;;;4955502;28;20025;-70
2023/07/14 04:21:19;;;;;;;;;;;;;;;;;;4955866;28;19957;-70
2023/07/14 04:23:45;;;;;;;;;;;;;;;;;;4953908;28;20339;-70
2023/07/14 04:26:14;;;;;;;;;;;;;;;;;;4956062;28;19957;-71
2023/07/14 04:28:40;;;;;;;;;;;;;;;;;;4955502;28;19961;-71
2023/07/14 04:31:06;;;;;;;;;;;;;;;;;;4955479;28;20381;-70
2023/07/14 04:33:32;;;;;;;;;;;;;;;;;;4955454;28;19965;-70
2023/07/14 04:35:58;;;;;;;;;;;;;;;;;;4955999;28;20411;-69
2023/07/14 04:38:24;;;;;;;;;;;;;;;;;;4955735;28;20424;-69
2023/07/14 04:40:50;;;;;;;;;;;;;;;;;;4955565;28;20024;-71
2023/07/14 04:43:16;;;;;;;;;;;;;;;;;;4955309;28;19973;-69
2023/07/14 04:45:42;;;;;;;;;;;;;;;;;;4955006;28;20029;-70
2023/07/14 04:48:08;;;;;;;;;;;;;;;;;;4955625;28;19980;-70
2023/07/14 04:50:34;;;;;;;;;;;;;;;;;;4955324;28;19957;-69
2023/07/14 04:52:59;;;;;;;;;;;;;;;;;;4955312;28;19965;-69
2023/07/14 04:55:25;;;;;;;;;;;;;;;;;;4955548;28;19964;-70
2023/07/14 04:57:51;;;;;;;;;;;;;;;;;;4955500;28;20048;-69
2023/07/14 05:00:20;;;;;;;;;;;;;;;;;;4955133;28;20000;-70
2023/07/14 05:02:46;;;;;;;;;;;;;;;;;;4955742;28;19962;-71
2023/07/14 05:05:12;;;;;;;;;;;;;;;;;;4955960;28;20100;-71
2023/07/14 05:07:38;;;;;;;;;;;;;;;;;;4955169;28;19958;-69
2023/07/14 05:10:04;;;;;;;;;;;;;;;;;;4955692;28;20048;-70
2023/07/14 05:12:30;;;;;;;;;;;;;;;;;;4955456;28;20040;-69
2023/07/14 05:14:56;;;;;;;;;;;;;;;;;;4955118;28;19958;-71
2023/07/14 05:17:22;;;;;;;;;;;;;;;;;;4955129;28;19962;-70
2023/07/14 05:19:48;;;;;;;;;;;;;;;;;;4955248;28;19977;-70
2023/07/14 05:22:14;;;;;;;;;;;;;;;;;;4955040;28;20347;-71
2023/07/14 05:24:39;;;;;;;;;;;;;;;;;;4955283;28;20052;-69
2023/07/14 05:27:06;;;;;;;;;;;;;;;;;;4954993;28;19957;-69
2023/07/14 05:29:32;;;;;;;;;;;;;;;;;;4954988;28;19989;-69
2023/07/14 05:31:58;;;;;;;;;;;;;;;;;;4954961;28;20391;-71
2023/07/14 05:34:24;;;;;;;;;;;;;;;;;;4954934;28;19958;-69
2023/07/14 05:36:50;;;;;;;;;;;;;;;;;;4958183;28;19958;-69
2023/07/14 05:39:16;;;;;;;;;;;;;;;;;;4958250;28;20064;-71
2023/07/14 05:41:42;;;;;;;;;;;;;;;;;;4958443;28;19978;-71
2023/07/14 05:44:07;;;;;;;;;;;;;;;;;;4957985;28;19996;-70
2023/07/14 05:46:33;;;;;;;;;;;;;;;;;;4958469;28;19958;-71
2023/07/14 05:48:59;;;;;;;;;;;;;;;;;;4958470;28;20419;-70
2023/07/14 05:51:25;;;;;;;;;;;;;;;;;;4958093;28;20339;-70
2023/07/14 05:53:51;;;;;;;;;;;;;;;;;;4958031;28;19968;-70
2023/07/14 05:56:17;;;;;;;;;;;;;;;;;;4958253;28;19958;-69
2023/07/14 05:58:43;;;;;;;;;;;;;;;;;;4957893;28;20005;-70
2023/07/14 06:01:09;;;;;;;;;;;;;;;;;;4957868;28;19980;-69
2023/07/14 06:03:35;;;;;;;;;;;;;;;;;;4957846;28;20055;-71
2023/07/14 06:06:01;;;;;;;;;;;;;;;;;;4958843;28;19981;-70
2023/07/14 06:08:27;;;;;;;;;;;;;;;;;;4957781;28;20008;-70
2023/07/14 06:10:53;;;;;;;;;;;;;;;;;;4957727;28;20023;-69
2023/07/14 06:13:19;;;;;;;;;;;;;;;;;;4957724;28;20347;-71
2023/07/14 06:15:46;;;;;;;;;;;;;;;;;;4958159;28;19958;-70
2023/07/14 06:18:12;;;;;;;;;;;;;;;;;;4957570;28;19962;-69
2023/07/14 06:20:37;;;;;;;;;;;;;;;;;;4957758;28;19977;-70
2023/07/14 06:23:03;;;;;;;;;;;;;;;;;;4957500;28;19958;-71
2023/07/14 06:25:30;;;;;;;;;;;;;;;;;;4957461;28;20451;-70
2023/07/14 06:27:57;;;;;;;;;;;;;;;;;;4957446;28;20017;-70
2023/07/14 06:30:24;;;;;;;;;;;;;;;;;;4957389;28;19961;-72
2023/07/14 06:32:52;;;;;;;;;;;;;;;;;;4957603;28;19991;-71
2023/07/14 06:35:18;;;;;;;;;;;;;;;;;;4957557;28;20009;-70
2023/07/14 06:37:43;;;;;;;;;;;;;;;;;;4957285;28;19961;-69
2023/07/14 06:40:09;;;;;;;;;;;;;;;;;;4957178;28;19977;-70
2023/07/14 06:42:35;;;;;;;;;;;;;;;;;;4957032;28;20071;-71
2023/07/14 06:45:02;;;;;;;;;;;;;;;;;;4957058;28;19997;-69
2023/07/14 06:47:28;;;;;;;;;;;;;;;;;;4957335;28;19962;-70
2023/07/14 06:49:53;;;;;;;;;;;;;;;;;;4957028;28;20407;-69
2023/07/14 06:52:19;;;;;;;;;;;;;;;;;;4957034;28;19965;-71
2023/07/14 06:54:46;;;;;;;;;;;;;;;;;;4957215;28;19980;-70
2023/07/14 06:57:12;;;;;;;;;;;;;;;;;;4957149;28;20443;-69
2023/07/14 06:59:38;;;;;;;;;;;;;;;;;;4956765;28;19978;-70
2023/07/14 07:02:04;;;;;;;;;;;;;;;;;;4957077;28;19958;-70
2023/07/14 07:04:30;;;;;;;;;;;;;;;;;;4957075;28;19965;-69
2023/07/14 07:06:56;;;;;;;;;;;;;;;;;;4957771;28;19957;-69
2023/07/14 07:09:22;;;;;;;;;;;;;;;;;;4956970;28;19962;-70
2023/07/14 07:11:48;;;;;;;;;;;;;;;;;;4956617;28;19988;-72
2023/07/14 07:14:13;;;;;;;;;;;;;;;;;;4956607;28;19957;-70
2023/07/14 07:16:39;;;;;;;;;;;;;;;;;;4956550;28;19957;-71
2023/07/14 07:19:05;;;;;;;;;;;;;;;;;;4956471;28;20084;-70
2023/07/14 07:21:31;;;;;;;;;;;;;;;;;;4956703;28;19965;-71
2023/07/14 07:23:57;;;;;;;;;;;;;;;;;;4956675;28;19958;-70
2023/07/14 07:26:23;;;;;;;;;;;;;;;;;;4956368;28;19958;-70
2023/07/14 07:28:49;;;;;;;;;;;;;;;;;;4956283;28;20004;-69
2023/07/14 07:31:15;;;;;;;;;;;;;;;;;;4956269;28;19993;-69
2023/07/14 07:33:41;;;;;;;;;;;;;;;;;;4956508;28;19961;-71
2023/07/14 07:36:16;;;;;;;;;;;;;;;;;;4956440;28;19958;-70
2023/07/14 07:38:42;;;;;;;;;;;;;;;;;;4956049;28;20344;-71
2023/07/14 07:41:08;;;;;;;;;;;;;;;;;;4956040;28;19958;-70
2023/07/14 07:43:34;;;;;;;;;;;;;;;;;;4956053;28;19968;-70
2023/07/14 07:46:00;;;;;;;;;;;;;;;;;;4955884;28;19994;-70
2023/07/14 07:48:25;;;;;;;;;;;;;;;;;;4956035;28;19958;-70
2023/07/14 07:50:51;;;;;;;;;;;;;;;;;;4956224;28;20332;-70
2023/07/14 07:53:17;;;;;;;;;;;;;;;;;;4955958;28;20443;-70
2023/07/14 07:55:43;;;;;;;;;;;;;;;;;;4956434;28;20044;-71
2023/07/14 07:58:09;;;;;;;;;;;;;;;;;;4955269;28;19957;-71
2023/07/14 08:00:36;;;;;;;;;;;;;;;;;;4955795;28;20032;-71
2023/07/14 08:03:01;;;;;;;;;;;;;;;;;;4956025;28;19961;-69
2023/07/14 08:05:27;;;;;;;;;;;;;;;;;;4956273;28;19961;-70
2023/07/14 08:07:54;;;;;;;;;;;;;;;;;;4956276;28;19957;-70
2023/07/14 08:10:20;;;;;;;;;;;;;;;;;;4956026;28;19962;-69
2023/07/14 08:12:46;;;;;;;;;;;;;;;;;;4956222;28;19957;-71
2023/07/14 08:15:12;;;;;;;;;;;;;;;;;;4955656;28;19969;-71
2023/07/14 08:17:38;;;;;;;;;;;;;;;;;;4955887;28;19965;-70
2023/07/14 08:20:04;;;;;;;;;;;;;;;;;;4955441;28;19977;-69
2023/07/14 08:22:30;;;;;;;;;;;;;;;;;;4956132;28;20412;-71
2023/07/14 08:24:57;;;;;;;;;;;;;;;;;;4955815;28;19964;-71
2023/07/14 08:27:23;;;;;;;;;;;;;;;;;;4955770;28;20048;-70
2023/07/14 08:29:49;;;;;;;;;;;;;;;;;;4955553;28;20008;-71
2023/07/14 08:32:15;;;;;;;;;;;;;;;;;;4955517;28;20430;-70
2023/07/14 08:34:41;;;;;;;;;;;;;;;;;;4955457;28;20458;-70
2023/07/14 08:37:07;;;;;;;;;;;;;;;;;;4955533;28;19957;-70
2023/07/14 08:39:33;;;;;;;;;;;;;;;;;;4955627;28;19977;-70
2023/07/14 08:41:59;;;;;;;;;;;;;;;;;;4955348;28;20031;-70
2023/07/14 08:44:25;;;;;;;;;;;;;;;;;;4955352;28;19993;-71
2023/07/14 08:46:51;;;;;;;;;;;;;;;;;;4955904;28;19957;-71
2023/07/14 08:49:17;;;;;;;;;;;;;;;;;;4955359;28;19958;-71
2023/07/14 08:51:44;;;;;;;;;;;;;;;;;;4955659;28;20021;-71
2023/07/14 08:54:10;;;;;;;;;;;;;;;;;;4955611;28;20052;-70
2023/07/14 08:56:36;;;;;;;;;;;;;;;;;;4955539;28;20372;-72
2023/07/14 08:59:02;;;;;;;;;;;;;;;;;;4955197;28;20052;-71
2023/07/14 09:01:28;;;;;;;;;;;;;;;;;;4955505;28;20001;-71
2023/07/14 09:03:54;;;;;;;;;;;;;;;;;;4955225;28;20063;-70
2023/07/14 09:06:20;;;;;;;;;;;;;;;;;;4956223;28;20044;-70
2023/07/14 09:08:46;;;;;;;;;;;;;;;;;;4955495;28;19958;-69
2023/07/14 09:11:12;;;;;;;;;;;;;;;;;;4958812;28;19983;-71
2023/07/14 09:13:38;;;;;;;;;;;;;;;;;;4958809;28;19957;-71
2023/07/14 09:16:03;;;;;;;;;;;;;;;;;;4958998;28;19958;-70
2023/07/14 09:18:29;;;;;;;;;;;;;;;;;;4958677;28;20335;-71
2023/07/14 09:20:55;;;;;;;;;;;;;;;;;;4958816;28;19978;-70
2023/07/14 09:23:21;;;;;;;;;;;;;;;;;;4958578;28;19968;-70
2023/07/14 09:25:48;;;;;;;;;;;;;;;;;;4959060;28;19997;-70
2023/07/14 09:28:15;;;;;;;;;;;;;;;;;;4958213;28;19965;-71
2023/07/14 09:30:41;;;;;;;;;;;;;;;;;;4958698;28;19962;-71
2023/07/14 09:33:07;;;;;;;;;;;;;;;;;;4958450;28;20423;-70
2023/07/14 09:35:33;;;;;;;;;;;;;;;;;;4958374;28;19965;-71
2023/07/14 09:37:59;;;;;;;;;;;;;;;;;;4958373;28;20020;-71
2023/07/14 09:40:25;;;;;;;;;;;;;;;;;;4958521;28;20024;-70
2023/07/14 09:42:51;;;;;;;;;;;;;;;;;;4958143;28;19977;-72
2023/07/14 09:45:17;;;;;;;;;;;;;;;;;;4958023;28;19993;-71
2023/07/14 09:47:43;;;;;;;;;;;;;;;;;;4958052;28;20396;-71
2023/07/14 09:50:09;;;;;;;;;;;;;;;;;;4958674;28;19961;-71
2023/07/14 09:52:35;;;;;;;;;;;;;;;;;;4958050;28;20400;-70
2023/07/14 09:55:01;;;;;;;;;;;;;;;;;;4958273;28;20009;-72
2023/07/14 09:57:27;;;;;;;;;;;;;;;;;;4957992;28;20443;-70
2023/07/14 09:59:53;;;;;;;;;;;;;;;;;;4957902;28;20067;-70
2023/07/14 10:02:19;;;;;;;;;;;;;;;;;;4957899;28;20000;-70
2023/07/14 10:04:44;;;;;;;;;;;;;;;;;;4957891;28;20004;-71
2023/07/14 10:07:10;;;;;;;;;;;;;;;;;;4958659;28;20005;-71
2023/07/14 10:09:36;;;;;;;;;;;;;;;;;;4957752;28;19958;-71
2023/07/14 10:12:02;;;;;;;;;;;;;;;;;;4958010;28;19966;-71
2023/07/14 10:14:28;;;;;;;;;;;;;;;;;;4957729;28;19993;-70
2023/07/14 10:16:54;;;;;;;;;;;;;;;;;;4957906;28;19958;-70
2023/07/14 10:19:20;;;;;;;;;;;;;;;;;;4957750;28;19985;-70
2023/07/14 10:21:46;;;;;;;;;;;;;;;;;;4956852;28;19965;-71
2023/07/14 10:24:12;;;;;;;;;;;;;;;;;;4958032;28;20379;-71
2023/07/14 10:26:38;;;;;;;;;;;;;;;;;;4957798;28;19957;-71
2023/07/14 10:29:04;;;;;;;;;;;;;;;;;;4957878;28;19958;-71
2023/07/14 10:31:30;;;;;;;;;;;;;;;;;;4957385;28;19964;-71
2023/07/14 10:33:56;;;;;;;;;;;;;;;;;;4957616;28;20033;-71
2023/07/14 10:36:22;;;;;;;;;;;;;;;;;;4957305;28;19961;-70
2023/07/14 10:38:47;;;;;;;;;;;;;;;;;;4957452;28;20328;-72
2023/07/14 10:41:13;;;;;;;;;;;;;;;;;;4957400;28;19969;-71
2023/07/14 10:43:39;;;;;;;;;;;;;;;;;;4957046;28;20052;-71
2023/07/14 10:46:06;;;;;;;;;;;;;;;;;;4957113;28;19969;-70
2023/07/14 10:48:32;;;;;;;;;;;;;;;;;;4957227;28;20048;-71
2023/07/14 10:50:58;;;;;;;;;;;;;;;;;;4956957;28;20000;-70
2023/07/14 10:53:24;;;;;;;;;;;;;;;;;;4956967;28;19965;-72
2023/07/14 10:55:50;;;;;;;;;;;;;;;;;;4957161;28;19964;-71
2023/07/14 10:58:17;;;;;;;;;;;;;;;;;;4956798;28;20048;-70
2023/07/14 11:00:43;;;;;;;;;;;;;;;;;;4957329;28;20416;-69
2023/07/14 11:03:09;;;;;;;;;;;;;;;;;;4956755;28;19958;-70
2023/07/14 11:05:34;;;;;;;;;;;;;;;;;;4956744;28;20053;-72
2023/07/14 11:08:02;;;;;;;;;;;;;;;;;;4957649;28;20359;-70
2023/07/14 11:10:29;;;;;;;;;;;;;;;;;;4956870;28;19980;-70
2023/07/14 11:12:54;;;;;;;;;;;;;;;;;;4956068;28;20375;-71
2023/07/14 11:15:21;;;;;;;;;;;;;;;;;;4956548;28;19957;-70
2023/07/14 11:17:46;;;;;;;;;;;;;;;;;;4956529;28;19962;-71
2023/07/14 11:20:12;;;;;;;;;;;;;;;;;;4956657;28;19985;-71
2023/07/14 11:22:38;;;;;;;;;;;;;;;;;;4956406;28;19957;-70
2023/07/14 11:25:09;;;;;;;;;;;;;;;;;;4956368;28;20044;-70
2023/07/14 11:27:35;;;;;;;;;;;;;;;;;;4956954;28;20428;-71
2023/07/14 11:30:03;;;;;;;;;;;;;;;;;;4956328;28;19958;-70
2023/07/14 11:32:29;;;;;;;;;;;;;;;;;;4955443;28;20000;-69
2023/07/14 11:34:56;;;;;;;;;;;;;;;;;;4956500;28;19957;-71
2023/07/14 11:37:22;;;;;;;;;;;;;;;;;;4956169;28;20015;-71
2023/07/14 11:39:48;;;;;;;;;;;;;;;;;;4956064;28;20439;-70
2023/07/14 11:42:14;;;;;;;;;;;;;;;;;;4956046;28;20108;-70
2023/07/14 11:44:40;;;;;;;;;;;;;;;;;;4956038;28;19993;-69
2023/07/14 11:47:06;;;;;;;;;;;;;;;;;;4956103;28;19957;-71
2023/07/14 11:49:32;;;;;;;;;;;;;;;;;;4956040;28;19973;-70
2023/07/14 11:51:58;;;;;;;;;;;;;;;;;;4956524;28;20001;-70
2023/07/14 11:54:24;;;;;;;;;;;;;;;;;;4956213;28;19957;-70
2023/07/14 11:56:49;;;;;;;;;;;;;;;;;;4956193;28;19965;-71
2023/07/14 11:59:15;;;;;;;;;;;;;;;;;;4954524;28;19985;-72
2023/07/14 12:01:41;;;;;;;;;;;;;;;;;;4955840;28;19958;-71
2023/07/14 12:04:08;;;;;;;;;;;;;;;;;;4956070;28;20011;-70
2023/07/14 12:06:34;;;;;;;;;;;;;;;;;;4956231;28;20488;-70
2023/07/14 12:08:59;;;;;;;;;;;;;;;;;;4956292;28;20040;-71
2023/07/14 12:11:25;;;;;;;;;;;;;;;;;;4955707;28;19961;-71
2023/07/14 12:13:51;;;;;;;;;;;;;;;;;;4955972;28;20036;-70
2023/07/14 12:16:18;;;;;;;;;;;;;;;;;;4954379;28;19968;-72
2023/07/14 12:18:44;;;;;;;;;;;;;;;;;;4956182;28;19965;-71
2023/07/14 12:21:09;;;;;;;;;;;;;;;;;;4955546;28;19978;-70
2023/07/14 12:23:35;;;;;;;;;;;;;;;;;;4955589;28;19961;-70
2023/07/14 12:26:01;;;;;;;;;;;;;;;;;;4956092;28;20044;-70
2023/07/14 12:28:30;;;;;;;;;;;;;;;;;;4955823;28;19958;-72
2023/07/14 12:30:56;;;;;;;;;;;;;;;;;;4955824;28;19993;-70
2023/07/14 12:33:22;;;;;;;;;;;;;;;;;;4955538;28;19961;-71
2023/07/14 12:35:48;;;;;;;;;;;;;;;;;;4955993;28;19958;-69
2023/07/14 12:38:14;;;;;;;;;;;;;;;;;;4955474;28;19964;-71
2023/07/14 12:40:41;;;;;;;;;;;;;;;;;;4955373;28;19978;-70
2023/07/14 12:43:07;;;;;;;;;;;;;;;;;;4955400;28;19973;-70
2023/07/14 12:45:33;;;;;;;;;;;;;;;;;;4958368;28;19993;-71
2023/07/14 12:47:59;;;;;;;;;;;;;;;;;;4959316;28;20025;-71
2023/07/14 12:50:25;;;;;;;;;;;;;;;;;;4959225;28;20415;-69
2023/07/14 12:52:51;;;;;;;;;;;;;;;;;;4959497;28;19957;-69
2023/07/14 12:55:16;;;;;;;;;;;;;;;;;;4959126;28;20339;-70
2023/07/14 12:57:42;;;;;;;;;;;;;;;;;;4959100;28;19957;-70
2023/07/14 13:00:08;;;;;;;;;;;;;;;;;;4959256;28;20041;-72
2023/07/14 13:02:34;;;;;;;;;;;;;;;;;;4959290;28;20056;-71
2023/07/14 13:05:00;;;;;;;;;;;;;;;;;;4958996;28;19964;-71
2023/07/14 13:07:26;;;;;;;;;;;;;;;;;;4960031;28;19965;-70
2023/07/14 13:09:52;;;;;;;;;;;;;;;;;;4958872;28;19966;-70
2023/07/14 13:12:18;;;;;;;;;;;;;;;;;;4959118;28;20004;-71
2023/07/14 13:14:44;;;;;;;;;;;;;;;;;;4959082;28;19957;-71
2023/07/14 13:17:10;;;;;;;;;;;;;;;;;;4958660;28;20316;-70
2023/07/14 13:19:36;;;;;;;;;;;;;;;;;;4959186;28;19983;-71
2023/07/14 13:22:02;;;;;;;;;;;;;;;;;;4958629;28;19961;-71
2023/07/14 13:24:28;;;;;;;;;;;;;;;;;;4958888;28;19957;-70
2023/07/14 13:26:54;;;;;;;;;;;;;;;;;;4957355;28;20499;-71
2023/07/14 13:29:20;;;;;;;;;;;;;;;;;;4959133;28;19966;-71
2023/07/14 13:31:46;;;;;;;;;;;;;;;;;;4958530;28;19965;-71
2023/07/14 13:34:12;;;;;;;;;;;;;;;;;;4958720;28;20116;-71
2023/07/14 13:36:38;;;;;;;;;;;;;;;;;;4958374;28;19957;-71
2023/07/14 13:39:04;;;;;;;;;;;;;;;;;;4958842;28;20006;-71
2023/07/14 13:41:30;;;;;;;;;;;;;;;;;;4958174;28;19978;-71
2023/07/14 13:43:55;;;;;;;;;;;;;;;;;;4958085;28;19969;-71
2023/07/14 13:46:21;;;;;;;;;;;;;;;;;;4958848;28;19964;-69
2023/07/14 13:48:47;;;;;;;;;;;;;;;;;;4958213;28;19958;-71
2023/07/14 13:51:13;;;;;;;;;;;;;;;;;;4958183;28;20321;-70
2023/07/14 13:53:39;;;;;;;;;;;;;;;;;;4958069;28;20005;-71
2023/07/14 13:56:05;;;;;;;;;;;;;;;;;;4957577;28;19965;-71
2023/07/14 13:58:31;;;;;;;;;;;;;;;;;;4958306;28;19957;-71
2023/07/14 14:00:57;;;;;;;;;;;;;;;;;;4957914;28;20474;-71
2023/07/14 14:03:23;;;;;;;;;;;;;;;;;;4958475;28;19957;-70
2023/07/14 14:05:49;;;;;;;;;;;;;;;;;;4957888;28;20085;-70
2023/07/14 14:08:15;;;;;;;;;;;;;;;;;;4958659;28;19958;-71
2023/07/14 14:10:41;;;;;;;;;;;;;;;;;;4957819;28;19958;-70
2023/07/14 14:13:06;;;;;;;;;;;;;;;;;;4957783;28;19958;-71
2023/07/14 14:15:32;;;;;;;;;;;;;;;;;;4958285;28;20444;-70
2023/07/14 14:17:58;;;;;;;;;;;;;;;;;;4956388;28;20009;-71
2023/07/14 14:20:24;;;;;;;;;;;;;;;;;;4958114;28;19983;-70
2023/07/14 14:22:52;;;;;;;;;;;;;;;;;;4957589;28;20044;-71
2023/07/14 14:25:18;;;;;;;;;;;;;;;;;;4957797;28;19964;-70
2023/07/14 14:27:44;;;;;;;;;;;;;;;;;;4957762;28;20052;-70
2023/07/14 14:30:10;;;;;;;;;;;;;;;;;;4957471;28;19960;-70
2023/07/14 14:32:37;;;;;;;;;;;;;;;;;;4957703;28;20001;-71
2023/07/14 14:35:03;;;;;;;;;;;;;;;;;;4957359;28;20048;-71
2023/07/14 14:37:28;;;;;;;;;;;;;;;;;;4957595;28;19989;-69
2023/07/14 14:39:55;;;;;;;;;;;;;;;;;;4957218;28;20383;-70
2023/07/14 14:42:21;;;;;;;;;;;;;;;;;;4957144;28;19980;-70
2023/07/14 14:44:47;;;;;;;;;;;;;;;;;;4957186;28;19986;-70
2023/07/14 14:47:13;;;;;;;;;;;;;;;;;;4957716;28;19965;-70
2023/07/14 14:49:39;;;;;;;;;;;;;;;;;;4957081;28;20033;-71
2023/07/14 14:52:05;;;;;;;;;;;;;;;;;;4957043;28;20424;-70
2023/07/14 14:54:31;;;;;;;;;;;;;;;;;;4957537;28;19961;-70
2023/07/14 14:56:57;;;;;;;;;;;;;;;;;;4956943;28;19957;-71
2023/07/14 14:59:22;;;;;;;;;;;;;;;;;;4956865;28;20080;-71
2023/07/14 15:01:48;;;;;;;;;;;;;;;;;;4957117;28;19959;-71
2023/07/14 15:04:15;;;;;;;;;;;;;;;;;;4957081;28;19958;-69
2023/07/14 15:06:41;;;;;;;;;;;;;;;;;;4957619;28;19958;-70
2023/07/14 15:09:08;;;;;;;;;;;;;;;;;;4956741;28;20438;-70
2023/07/14 15:11:34;;;;;;;;;;;;;;;;;;4956712;28;20023;-70
2023/07/14 15:14:00;;;;;;;;;;;;;;;;;;4956634;28;20335;-72
2023/07/14 15:16:26;;;;;;;;;;;;;;;;;;4957102;28;19958;-70
2023/07/14 15:18:52;;;;;;;;;;;;;;;;;;4956462;28;19961;-71
2023/07/14 15:21:21;;;;;;;;;;;;;;;;;;4956671;28;19977;-72
2023/07/14 15:23:49;;;;;;;;;;;;;;;;;;4955688;28;20343;-70
2023/07/14 15:26:15;;;;;;;;;;;;;;;;;;4956431;28;19965;-70
2023/07/14 15:28:41;;;;;;;;;;;;;;;;;;4956648;28;19958;-72
2023/07/14 15:31:06;;;;;;;;;;;;;;;;;;4956255;28;19958;-71
2023/07/14 15:33:32;;;;;;;;;;;;;;;;;;4956287;28;20005;-70
2023/07/14 15:35:58;;;;;;;;;;;;;;;;;;4956264;28;19958;-72
2023/07/14 15:38:24;;;;;;;;;;;;;;;;;;4956471;28;20070;-70
2023/07/14 15:40:50;;;;;;;;;;;;;;;;;;4956382;28;20470;-69
2023/07/14 15:43:17;;;;;;;;;;;;;;;;;;4956107;28;19974;-70
2023/07/14 15:45:43;;;;;;;;;;;;;;;;;;4955721;28;19993;-71
2023/07/14 15:48:09;;;;;;;;;;;;;;;;;;4956073;28;20435;-71
2023/07/14 15:50:35;;;;;;;;;;;;;;;;;;4956027;28;19984;-70
2023/07/14 15:53:01;;;;;;;;;;;;;;;;;;4956517;28;20463;-72
2023/07/14 15:55:27;;;;;;;;;;;;;;;;;;4956249;28;19958;-71
2023/07/14 15:57:52;;;;;;;;;;;;;;;;;;4956214;28;20415;-70
2023/07/14 16:00:18;;;;;;;;;;;;;;;;;;4956120;28;19977;-71
2023/07/14 16:02:44;;;;;;;;;;;;;;;;;;4955883;28;19958;-72
2023/07/14 16:05:11;;;;;;;;;;;;;;;;;;4956376;28;20069;-70
2023/07/14 16:07:37;;;;;;;;;;;;;;;;;;4956591;28;20320;-71
2023/07/14 16:10:04;;;;;;;;;;;;;;;;;;4956036;28;19962;-71
2023/07/14 16:12:30;;;;;;;;;;;;;;;;;;4955724;28;19963;-70
2023/07/14 16:14:56;;;;;;;;;;;;;;;;;;4955693;28;19957;-71
2023/07/14 16:17:22;;;;;;;;;;;;;;;;;;4955712;28;19969;-70
2023/07/14 16:19:47;;;;;;;;;;;;;;;;;;4955305;28;19977;-72
2023/07/14 16:22:13;;;;;;;;;;;;;;;;;;4955873;28;19965;-71
2023/07/14 16:24:39;;;;;;;;;;;;;;;;;;4955609;28;20055;-70
2023/07/14 16:27:05;;;;;;;;;;;;;;;;;;4955561;28;19961;-70
2023/07/14 16:29:31;;;;;;;;;;;;;;;;;;4955551;28;20012;-70
2023/07/14 16:31:57;;;;;;;;;;;;;;;;;;4955761;28;19961;-70
2023/07/14 16:34:23;;;;;;;;;;;;;;;;;;4956072;28;19958;-71
2023/07/14 16:36:49;;;;;;;;;;;;;;;;;;4955772;28;19965;-69